sensor_id;sensor_type;location;lat;lon;timestamp;P1;durP1;ratioP1;P2;durP2;ratioP2
24826;SDS011;12910;57.690;11.974;2023-02-27T00:02:09;1.27;;;0.90;;
24826;SDS011;12910;57.690;11.974;2023-02-27T00:04:35;0.60;;;0.50;;
24826;SDS011;12910;57.690;11.974;2023-02-27T00:07:00;2.63;;;0.70;;
24826;SDS011;12910;57.690;11.974;2023-02-27T00:09:25;8.67;;;1.47;;
24826;SDS011;12910;57.690;11.974;2023-02-27T00:11:51;2.07;;;0.83;;
24826;SDS011;12910;57.690;11.974;2023-02-27T00:14:16;0.83;;;0.70;;
24826;SDS011;12910;57.690;11.974;2023-02-27T00:16:42;1.07;;;0.70;;
24826;SDS011;12910;57.690;11.974;2023-02-27T00:19:07;0.80;;;0.60;;
24826;SDS011;12910;57.690;11.974;2023-02-27T00:21:33;3.70;;;0.63;;
24826;SDS011;12910;57.690;11.974;2023-02-27T00:23:59;4.20;;;1.00;;
24826;SDS011;12910;57.690;11.974;2023-02-27T00:26:24;1.00;;;0.70;;
24826;SDS011;12910;57.690;11.974;2023-02-27T00:28:50;2.73;;;1.00;;
24826;SDS011;12910;57.690;11.974;2023-02-27T00:31:16;1.23;;;0.93;;
24826;SDS011;12910;57.690;11.974;2023-02-27T00:33:41;9.10;;;1.40;;
24826;SDS011;12910;57.690;11.974;2023-02-27T00:36:07;2.43;;;1.37;;
24826;SDS011;12910;57.690;11.974;2023-02-27T00:38:32;2.90;;;1.30;;
24826;SDS011;12910;57.690;11.974;2023-02-27T00:40:58;2.97;;;1.03;;
24826;SDS011;12910;57.690;11.974;2023-02-27T00:43:24;1.30;;;1.13;;
24826;SDS011;12910;57.690;11.974;2023-02-27T00:45:49;1.93;;;0.87;;
24826;SDS011;12910;57.690;11.974;2023-02-27T00:48:15;2.73;;;0.90;;
24826;SDS011;12910;57.690;11.974;2023-02-27T00:50:40;2.63;;;1.07;;
24826;SDS011;12910;57.690;11.974;2023-02-27T00:53:06;1.13;;;0.87;;
24826;SDS011;12910;57.690;11.974;2023-02-27T00:55:31;2.50;;;1.10;;
24826;SDS011;12910;57.690;11.974;2023-02-27T00:57:57;2.50;;;0.67;;
24826;SDS011;12910;57.690;11.974;2023-02-27T01:00:22;5.53;;;0.80;;
24826;SDS011;12910;57.690;11.974;2023-02-27T01:02:48;0.70;;;0.70;;
24826;SDS011;12910;57.690;11.974;2023-02-27T01:05:13;2.53;;;1.37;;
24826;SDS011;12910;57.690;11.974;2023-02-27T01:07:39;2.70;;;0.87;;
24826;SDS011;12910;57.690;11.974;2023-02-27T01:10:05;1.30;;;0.80;;
24826;SDS011;12910;57.690;11.974;2023-02-27T01:12:32;1.50;;;0.90;;
24826;SDS011;12910;57.690;11.974;2023-02-27T01:14:57;0.70;;;0.70;;
24826;SDS011;12910;57.690;11.974;2023-02-27T01:17:23;2.63;;;1.23;;
24826;SDS011;12910;57.690;11.974;2023-02-27T01:19:48;1.90;;;0.90;;
24826;SDS011;12910;57.690;11.974;2023-02-27T01:22:13;2.73;;;1.57;;
24826;SDS011;12910;57.690;11.974;2023-02-27T01:24:39;2.10;;;1.00;;
24826;SDS011;12910;57.690;11.974;2023-02-27T01:27:04;1.53;;;1.03;;
24826;SDS011;12910;57.690;11.974;2023-02-27T01:29:30;1.43;;;1.00;;
24826;SDS011;12910;57.690;11.974;2023-02-27T01:31:55;3.20;;;1.00;;
24826;SDS011;12910;57.690;11.974;2023-02-27T01:34:20;2.57;;;0.83;;
24826;SDS011;12910;57.690;11.974;2023-02-27T01:36:46;3.87;;;1.20;;
24826;SDS011;12910;57.690;11.974;2023-02-27T01:39:11;1.73;;;0.90;;
24826;SDS011;12910;57.690;11.974;2023-02-27T01:41:36;2.17;;;0.90;;
24826;SDS011;12910;57.690;11.974;2023-02-27T01:44:03;3.00;;;1.07;;
24826;SDS011;12910;57.690;11.974;2023-02-27T01:46:34;1.63;;;1.10;;
24826;SDS011;12910;57.690;11.974;2023-02-27T01:49:22;1.30;;;0.70;;
24826;SDS011;12910;57.690;11.974;2023-02-27T01:51:48;1.27;;;0.87;;
24826;SDS011;12910;57.690;11.974;2023-02-27T01:54:19;0.93;;;0.70;;
24826;SDS011;12910;57.690;11.974;2023-02-27T01:56:48;3.20;;;0.80;;
24826;SDS011;12910;57.690;11.974;2023-02-27T01:59:14;1.70;;;1.00;;
24826;SDS011;12910;57.690;11.974;2023-02-27T02:01:40;3.43;;;1.73;;
24826;SDS011;12910;57.690;11.974;2023-02-27T02:07:11;2.37;;;0.70;;
24826;SDS011;12910;57.690;11.974;2023-02-27T02:10:12;2.83;;;2.57;;
24826;SDS011;12910;57.690;11.974;2023-02-27T02:12:32;1.33;;;1.07;;
24826;SDS011;12910;57.690;11.974;2023-02-27T02:15:00;2.17;;;1.33;;
24826;SDS011;12910;57.690;11.974;2023-02-27T02:17:30;1.90;;;0.77;;
24826;SDS011;12910;57.690;11.974;2023-02-27T02:28:16;2.23;;;1.00;;
24826;SDS011;12910;57.690;11.974;2023-02-27T02:34:02;5.63;;;1.30;;
24826;SDS011;12910;57.690;11.974;2023-02-27T02:36:54;1.20;;;0.67;;
24826;SDS011;12910;57.690;11.974;2023-02-27T02:50:33;2.17;;;1.33;;
24826;SDS011;12910;57.690;11.974;2023-02-27T02:53:19;1.60;;;1.50;;
24826;SDS011;12910;57.690;11.974;2023-02-27T02:58:36;4.87;;;2.00;;
24826;SDS011;12910;57.690;11.974;2023-02-27T03:02:06;3.67;;;1.70;;
24826;SDS011;12910;57.690;11.974;2023-02-27T03:07:05;5.63;;;1.50;;
24826;SDS011;12910;57.690;11.974;2023-02-27T03:09:51;1.60;;;1.40;;
24826;SDS011;12910;57.690;11.974;2023-02-27T03:12:22;4.30;;;1.87;;
24826;SDS011;12910;57.690;11.974;2023-02-27T03:14:52;7.73;;;1.50;;
24826;SDS011;12910;57.690;11.974;2023-02-27T03:17:25;3.97;;;1.53;;
24826;SDS011;12910;57.690;11.974;2023-02-27T03:19:58;2.03;;;1.00;;
24826;SDS011;12910;57.690;11.974;2023-02-27T03:22:33;3.60;;;1.17;;
24826;SDS011;12910;57.690;11.974;2023-02-27T03:25:03;2.63;;;1.50;;
24826;SDS011;12910;57.690;11.974;2023-02-27T03:27:32;4.23;;;1.30;;
24826;SDS011;12910;57.690;11.974;2023-02-27T03:35:46;1.60;;;1.50;;
24826;SDS011;12910;57.690;11.974;2023-02-27T03:38:21;1.83;;;0.90;;
24826;SDS011;12910;57.690;11.974;2023-02-27T03:43:57;1.77;;;1.10;;
24826;SDS011;12910;57.690;11.974;2023-02-27T03:46:35;1.90;;;1.13;;
24826;SDS011;12910;57.690;11.974;2023-02-27T03:49:01;1.63;;;1.07;;
24826;SDS011;12910;57.690;11.974;2023-02-27T03:51:27;2.03;;;1.23;;
24826;SDS011;12910;57.690;11.974;2023-02-27T03:56:28;1.60;;;0.97;;
24826;SDS011;12910;57.690;11.974;2023-02-27T03:58:59;5.50;;;1.27;;
24826;SDS011;12910;57.690;11.974;2023-02-27T04:01:24;1.97;;;1.77;;
24826;SDS011;12910;57.690;11.974;2023-02-27T04:04:00;1.60;;;1.33;;
24826;SDS011;12910;57.690;11.974;2023-02-27T04:06:31;3.77;;;0.90;;
24826;SDS011;12910;57.690;11.974;2023-02-27T04:09:42;2.50;;;1.37;;
24826;SDS011;12910;57.690;11.974;2023-02-27T04:14:41;1.83;;;1.03;;
24826;SDS011;12910;57.690;11.974;2023-02-27T04:17:25;2.33;;;1.10;;
24826;SDS011;12910;57.690;11.974;2023-02-27T04:22:47;2.53;;;1.40;;
24826;SDS011;12910;57.690;11.974;2023-02-27T04:28:17;6.73;;;1.40;;
24826;SDS011;12910;57.690;11.974;2023-02-27T04:34:09;4.17;;;0.97;;
24826;SDS011;12910;57.690;11.974;2023-02-27T04:36:40;1.40;;;1.10;;
24826;SDS011;12910;57.690;11.974;2023-02-27T04:39:32;2.30;;;1.20;;
24826;SDS011;12910;57.690;11.974;2023-02-27T04:42:07;4.70;;;0.90;;
24826;SDS011;12910;57.690;11.974;2023-02-27T04:44:38;2.77;;;1.30;;
24826;SDS011;12910;57.690;11.974;2023-02-27T04:47:06;7.13;;;1.23;;
24826;SDS011;12910;57.690;11.974;2023-02-27T04:49:34;3.33;;;1.00;;
24826;SDS011;12910;57.690;11.974;2023-02-27T04:52:52;1.10;;;1.00;;
24826;SDS011;12910;57.690;11.974;2023-02-27T04:54:59;1.17;;;1.00;;
24826;SDS011;12910;57.690;11.974;2023-02-27T04:57:33;1.43;;;1.00;;
24826;SDS011;12910;57.690;11.974;2023-02-27T05:00:05;1.47;;;1.20;;
24826;SDS011;12910;57.690;11.974;2023-02-27T05:02:36;3.57;;;1.03;;
24826;SDS011;12910;57.690;11.974;2023-02-27T05:05:07;1.60;;;1.23;;
24826;SDS011;12910;57.690;11.974;2023-02-27T05:07:49;2.40;;;1.40;;
24826;SDS011;12910;57.690;11.974;2023-02-27T05:10:25;2.70;;;1.13;;
24826;SDS011;12910;57.690;11.974;2023-02-27T05:12:57;3.47;;;1.37;;
24826;SDS011;12910;57.690;11.974;2023-02-27T05:18:07;5.07;;;1.63;;
24826;SDS011;12910;57.690;11.974;2023-02-27T05:26:26;2.43;;;1.13;;
24826;SDS011;12910;57.690;11.974;2023-02-27T05:31:42;1.23;;;0.90;;
24826;SDS011;12910;57.690;11.974;2023-02-27T05:34:21;1.10;;;1.00;;
24826;SDS011;12910;57.690;11.974;2023-02-27T05:39:29;1.03;;;0.60;;
24826;SDS011;12910;57.690;11.974;2023-02-27T05:42:32;2.33;;;0.90;;
24826;SDS011;12910;57.690;11.974;2023-02-27T05:44:59;0.50;;;0.50;;
24826;SDS011;12910;57.690;11.974;2023-02-27T05:47:31;3.77;;;0.80;;
24826;SDS011;12910;57.690;11.974;2023-02-27T05:50:08;0.90;;;0.90;;
24826;SDS011;12910;57.690;11.974;2023-02-27T05:52:37;1.43;;;0.80;;
24826;SDS011;12910;57.690;11.974;2023-02-27T05:55:05;6.80;;;3.07;;
24826;SDS011;12910;57.690;11.974;2023-02-27T05:57:41;1.80;;;1.47;;
24826;SDS011;12910;57.690;11.974;2023-02-27T06:02:34;1.57;;;1.17;;
24826;SDS011;12910;57.690;11.974;2023-02-27T06:04:59;3.03;;;1.20;;
24826;SDS011;12910;57.690;11.974;2023-02-27T06:07:24;3.53;;;1.20;;
24826;SDS011;12910;57.690;11.974;2023-02-27T06:09:50;5.83;;;1.30;;
24826;SDS011;12910;57.690;11.974;2023-02-27T06:12:16;2.33;;;1.40;;
24826;SDS011;12910;57.690;11.974;2023-02-27T06:14:41;2.83;;;1.33;;
24826;SDS011;12910;57.690;11.974;2023-02-27T06:17:06;2.13;;;1.93;;
24826;SDS011;12910;57.690;11.974;2023-02-27T06:19:32;4.77;;;1.47;;
24826;SDS011;12910;57.690;11.974;2023-02-27T06:21:57;1.83;;;1.30;;
24826;SDS011;12910;57.690;11.974;2023-02-27T06:24:22;2.07;;;1.57;;
24826;SDS011;12910;57.690;11.974;2023-02-27T06:26:48;2.23;;;1.60;;
24826;SDS011;12910;57.690;11.974;2023-02-27T06:29:13;1.60;;;1.50;;
24826;SDS011;12910;57.690;11.974;2023-02-27T06:31:38;1.63;;;1.40;;
24826;SDS011;12910;57.690;11.974;2023-02-27T06:34:04;2.27;;;1.70;;
24826;SDS011;12910;57.690;11.974;2023-02-27T06:36:29;2.43;;;1.30;;
24826;SDS011;12910;57.690;11.974;2023-02-27T06:38:55;1.37;;;1.20;;
24826;SDS011;12910;57.690;11.974;2023-02-27T06:41:21;2.40;;;1.53;;
24826;SDS011;12910;57.690;11.974;2023-02-27T06:43:47;5.63;;;1.33;;
24826;SDS011;12910;57.690;11.974;2023-02-27T06:46:13;1.07;;;0.97;;
24826;SDS011;12910;57.690;11.974;2023-02-27T06:48:38;3.80;;;1.30;;
24826;SDS011;12910;57.690;11.974;2023-02-27T06:51:04;2.33;;;1.77;;
24826;SDS011;12910;57.690;11.974;2023-02-27T06:53:29;9.00;;;1.97;;
24826;SDS011;12910;57.690;11.974;2023-02-27T06:55:54;1.73;;;1.20;;
24826;SDS011;12910;57.690;11.974;2023-02-27T06:58:20;4.90;;;3.50;;
24826;SDS011;12910;57.690;11.974;2023-02-27T07:00:45;3.83;;;2.07;;
24826;SDS011;12910;57.690;11.974;2023-02-27T07:03:10;1.93;;;1.63;;
24826;SDS011;12910;57.690;11.974;2023-02-27T07:05:36;6.23;;;1.70;;
24826;SDS011;12910;57.690;11.974;2023-02-27T07:08:02;2.53;;;1.53;;
24826;SDS011;12910;57.690;11.974;2023-02-27T07:10:28;2.30;;;1.50;;
24826;SDS011;12910;57.690;11.974;2023-02-27T07:12:53;3.03;;;1.83;;
24826;SDS011;12910;57.690;11.974;2023-02-27T07:15:19;7.97;;;2.03;;
24826;SDS011;12910;57.690;11.974;2023-02-27T07:17:44;3.37;;;1.13;;
24826;SDS011;12910;57.690;11.974;2023-02-27T07:20:10;3.20;;;1.67;;
24826;SDS011;12910;57.690;11.974;2023-02-27T07:22:37;3.20;;;1.60;;
24826;SDS011;12910;57.690;11.974;2023-02-27T07:25:03;7.57;;;2.03;;
24826;SDS011;12910;57.690;11.974;2023-02-27T07:27:29;2.00;;;1.53;;
24826;SDS011;12910;57.690;11.974;2023-02-27T07:29:54;2.07;;;1.67;;
24826;SDS011;12910;57.690;11.974;2023-02-27T07:32:20;1.90;;;1.53;;
24826;SDS011;12910;57.690;11.974;2023-02-27T07:34:45;1.30;;;1.20;;
24826;SDS011;12910;57.690;11.974;2023-02-27T07:37:11;5.33;;;1.50;;
24826;SDS011;12910;57.690;11.974;2023-02-27T07:39:37;2.00;;;1.30;;
24826;SDS011;12910;57.690;11.974;2023-02-27T07:42:02;7.20;;;1.53;;
24826;SDS011;12910;57.690;11.974;2023-02-27T07:44:27;2.50;;;1.23;;
24826;SDS011;12910;57.690;11.974;2023-02-27T07:46:53;3.53;;;2.00;;
24826;SDS011;12910;57.690;11.974;2023-02-27T07:49:19;2.10;;;1.53;;
24826;SDS011;12910;57.690;11.974;2023-02-27T07:51:44;2.47;;;1.40;;
24826;SDS011;12910;57.690;11.974;2023-02-27T07:54:09;5.20;;;1.87;;
24826;SDS011;12910;57.690;11.974;2023-02-27T07:56:35;2.67;;;1.93;;
24826;SDS011;12910;57.690;11.974;2023-02-27T07:59:00;11.20;;;1.37;;
24826;SDS011;12910;57.690;11.974;2023-02-27T08:01:26;2.30;;;1.50;;
24826;SDS011;12910;57.690;11.974;2023-02-27T08:03:51;7.53;;;1.93;;
24826;SDS011;12910;57.690;11.974;2023-02-27T08:06:16;5.90;;;1.83;;
24826;SDS011;12910;57.690;11.974;2023-02-27T08:08:42;7.50;;;1.73;;
24826;SDS011;12910;57.690;11.974;2023-02-27T08:11:08;5.80;;;1.67;;
24826;SDS011;12910;57.690;11.974;2023-02-27T08:13:33;10.47;;;2.17;;
24826;SDS011;12910;57.690;11.974;2023-02-27T08:15:59;11.77;;;2.17;;
24826;SDS011;12910;57.690;11.974;2023-02-27T08:18:24;8.40;;;2.13;;
24826;SDS011;12910;57.690;11.974;2023-02-27T08:20:50;9.30;;;2.40;;
24826;SDS011;12910;57.690;11.974;2023-02-27T08:23:15;11.73;;;2.63;;
24826;SDS011;12910;57.690;11.974;2023-02-27T08:25:41;18.60;;;2.13;;
24826;SDS011;12910;57.690;11.974;2023-02-27T08:28:06;7.77;;;2.57;;
24826;SDS011;12910;57.690;11.974;2023-02-27T08:30:32;8.60;;;1.90;;
24826;SDS011;12910;57.690;11.974;2023-02-27T08:32:57;8.43;;;2.57;;
24826;SDS011;12910;57.690;11.974;2023-02-27T08:35:23;2.57;;;1.60;;
24826;SDS011;12910;57.690;11.974;2023-02-27T08:37:48;10.47;;;1.77;;
24826;SDS011;12910;57.690;11.974;2023-02-27T08:40:14;8.20;;;1.77;;
24826;SDS011;12910;57.690;11.974;2023-02-27T08:42:40;4.60;;;1.97;;
24826;SDS011;12910;57.690;11.974;2023-02-27T08:45:06;14.90;;;2.23;;
24826;SDS011;12910;57.690;11.974;2023-02-27T08:47:32;4.50;;;1.80;;
24826;SDS011;12910;57.690;11.974;2023-02-27T08:49:58;5.37;;;2.10;;
24826;SDS011;12910;57.690;11.974;2023-02-27T08:52:23;21.17;;;1.63;;
24826;SDS011;12910;57.690;11.974;2023-02-27T08:54:49;3.10;;;1.67;;
24826;SDS011;12910;57.690;11.974;2023-02-27T08:57:14;6.23;;;1.77;;
24826;SDS011;12910;57.690;11.974;2023-02-27T08:59:39;12.10;;;2.17;;
24826;SDS011;12910;57.690;11.974;2023-02-27T09:02:05;2.30;;;2.10;;
24826;SDS011;12910;57.690;11.974;2023-02-27T09:04:31;8.90;;;1.83;;
24826;SDS011;12910;57.690;11.974;2023-02-27T09:06:56;4.53;;;1.63;;
24826;SDS011;12910;57.690;11.974;2023-02-27T09:09:22;6.00;;;1.90;;
24826;SDS011;12910;57.690;11.974;2023-02-27T09:11:51;10.33;;;1.70;;
24826;SDS011;12910;57.690;11.974;2023-02-27T09:14:17;6.50;;;1.50;;
24826;SDS011;12910;57.690;11.974;2023-02-27T09:16:43;8.60;;;2.30;;
24826;SDS011;12910;57.690;11.974;2023-02-27T09:19:09;6.90;;;1.10;;
24826;SDS011;12910;57.690;11.974;2023-02-27T09:21:34;2.63;;;1.63;;
24826;SDS011;12910;57.690;11.974;2023-02-27T09:24:01;8.37;;;2.00;;
24826;SDS011;12910;57.690;11.974;2023-02-27T09:26:29;1.83;;;1.10;;
24826;SDS011;12910;57.690;11.974;2023-02-27T09:28:55;3.83;;;1.43;;
24826;SDS011;12910;57.690;11.974;2023-02-27T09:31:20;5.03;;;1.80;;
24826;SDS011;12910;57.690;11.974;2023-02-27T09:33:45;11.47;;;1.70;;
24826;SDS011;12910;57.690;11.974;2023-02-27T09:36:11;2.50;;;1.57;;
24826;SDS011;12910;57.690;11.974;2023-02-27T09:38:37;5.83;;;1.93;;
24826;SDS011;12910;57.690;11.974;2023-02-27T09:41:03;7.03;;;2.03;;
24826;SDS011;12910;57.690;11.974;2023-02-27T09:43:33;5.77;;;2.60;;
24826;SDS011;12910;57.690;11.974;2023-02-27T09:46:04;8.77;;;2.27;;
24826;SDS011;12910;57.690;11.974;2023-02-27T09:48:33;10.03;;;2.07;;
24826;SDS011;12910;57.690;11.974;2023-02-27T09:51:03;9.47;;;2.20;;
24826;SDS011;12910;57.690;11.974;2023-02-27T09:53:30;4.23;;;2.33;;
24826;SDS011;12910;57.690;11.974;2023-02-27T09:59:16;19.43;;;2.87;;
24826;SDS011;12910;57.690;11.974;2023-02-27T10:01:55;6.47;;;1.87;;
24826;SDS011;12910;57.690;11.974;2023-02-27T10:07:36;9.70;;;1.40;;
24826;SDS011;12910;57.690;11.974;2023-02-27T10:10:29;1.97;;;0.87;;
24826;SDS011;12910;57.690;11.974;2023-02-27T10:16:05;4.07;;;1.00;;
24826;SDS011;12910;57.690;11.974;2023-02-27T10:18:47;2.23;;;1.27;;
24826;SDS011;12910;57.690;11.974;2023-02-27T10:21:20;2.83;;;0.90;;
24826;SDS011;12910;57.690;11.974;2023-02-27T10:26:38;1.43;;;0.90;;
24826;SDS011;12910;57.690;11.974;2023-02-27T10:34:46;7.30;;;0.70;;
24826;SDS011;12910;57.690;11.974;2023-02-27T10:37:17;12.10;;;1.23;;
24826;SDS011;12910;57.690;11.974;2023-02-27T10:39:48;9.13;;;1.60;;
24826;SDS011;12910;57.690;11.974;2023-02-27T10:42:19;1.53;;;0.90;;
24826;SDS011;12910;57.690;11.974;2023-02-27T10:44:48;12.80;;;0.97;;
24826;SDS011;12910;57.690;11.974;2023-02-27T10:47:19;2.03;;;0.77;;
24826;SDS011;12910;57.690;11.974;2023-02-27T10:49:47;6.23;;;1.00;;
24826;SDS011;12910;57.690;11.974;2023-02-27T10:52:13;1.23;;;1.10;;
24826;SDS011;12910;57.690;11.974;2023-02-27T10:54:40;8.43;;;0.63;;
24826;SDS011;12910;57.690;11.974;2023-02-27T10:57:25;6.33;;;0.90;;
24826;SDS011;12910;57.690;11.974;2023-02-27T10:59:56;5.03;;;0.70;;
24826;SDS011;12910;57.690;11.974;2023-02-27T11:02:40;3.00;;;0.53;;
24826;SDS011;12910;57.690;11.974;2023-02-27T11:07:48;1.60;;;0.73;;
24826;SDS011;12910;57.690;11.974;2023-02-27T11:10:16;1.80;;;0.80;;
24826;SDS011;12910;57.690;11.974;2023-02-27T11:13:03;1.50;;;0.67;;
24826;SDS011;12910;57.690;11.974;2023-02-27T11:15:33;1.53;;;0.67;;
24826;SDS011;12910;57.690;11.974;2023-02-27T11:21:13;2.60;;;0.53;;
24826;SDS011;12910;57.690;11.974;2023-02-27T11:31:50;9.93;;;0.60;;
24826;SDS011;12910;57.690;11.974;2023-02-27T11:34:17;1.40;;;0.50;;
24826;SDS011;12910;57.690;11.974;2023-02-27T11:36:46;4.97;;;0.57;;
24826;SDS011;12910;57.690;11.974;2023-02-27T11:39:24;5.93;;;0.50;;
24826;SDS011;12910;57.690;11.974;2023-02-27T11:41:53;7.00;;;0.60;;
24826;SDS011;12910;57.690;11.974;2023-02-27T11:44:23;1.50;;;0.40;;
24826;SDS011;12910;57.690;11.974;2023-02-27T11:47:05;0.60;;;0.40;;
24826;SDS011;12910;57.690;11.974;2023-02-27T11:49:38;3.47;;;0.20;;
24826;SDS011;12910;57.690;11.974;2023-02-27T11:52:18;0.30;;;0.30;;
24826;SDS011;12910;57.690;11.974;2023-02-27T11:55:07;0.83;;;0.40;;
24826;SDS011;12910;57.690;11.974;2023-02-27T11:57:40;0.30;;;0.30;;
24826;SDS011;12910;57.690;11.974;2023-02-27T12:05:35;4.77;;;0.77;;
24826;SDS011;12910;57.690;11.974;2023-02-27T12:08:15;0.77;;;0.57;;
24826;SDS011;12910;57.690;11.974;2023-02-27T12:13:23;0.70;;;0.40;;
24826;SDS011;12910;57.690;11.974;2023-02-27T12:16:06;1.00;;;0.37;;
24826;SDS011;12910;57.690;11.974;2023-02-27T12:18:51;3.60;;;0.40;;
24826;SDS011;12910;57.690;11.974;2023-02-27T12:21:25;2.10;;;0.60;;
24826;SDS011;12910;57.690;11.974;2023-02-27T12:23:57;0.83;;;0.40;;
24826;SDS011;12910;57.690;11.974;2023-02-27T12:26:32;0.67;;;0.30;;
24826;SDS011;12910;57.690;11.974;2023-02-27T12:36:45;4.50;;;0.50;;
24826;SDS011;12910;57.690;11.974;2023-02-27T12:39:20;5.10;;;0.53;;
24826;SDS011;12910;57.690;11.974;2023-02-27T12:44:56;10.60;;;0.53;;
24826;SDS011;12910;57.690;11.974;2023-02-27T12:50:17;2.53;;;0.50;;
24826;SDS011;12910;57.690;11.974;2023-02-27T12:55:32;6.03;;;0.60;;
24826;SDS011;12910;57.690;11.974;2023-02-27T13:00:42;2.93;;;0.40;;
24826;SDS011;12910;57.690;11.974;2023-02-27T13:13:58;2.00;;;1.73;;
24826;SDS011;12910;57.690;11.974;2023-02-27T13:19:00;0.80;;;0.40;;
24826;SDS011;12910;57.690;11.974;2023-02-27T13:21:53;5.03;;;0.50;;
24826;SDS011;12910;57.690;11.974;2023-02-27T13:24:23;2.07;;;0.30;;
24826;SDS011;12910;57.690;11.974;2023-02-27T13:35:00;0.63;;;0.40;;
24826;SDS011;12910;57.690;11.974;2023-02-27T13:46:43;0.43;;;0.40;;
24826;SDS011;12910;57.690;11.974;2023-02-27T13:59:26;6.40;;;0.40;;
24826;SDS011;12910;57.690;11.974;2023-02-27T14:01:56;4.80;;;0.47;;
24826;SDS011;12910;57.690;11.974;2023-02-27T14:04:26;0.70;;;0.20;;
24826;SDS011;12910;57.690;11.974;2023-02-27T14:07:00;4.57;;;0.30;;
24826;SDS011;12910;57.690;11.974;2023-02-27T14:09:38;5.93;;;0.27;;
24826;SDS011;12910;57.690;11.974;2023-02-27T14:12:06;0.50;;;0.30;;
24826;SDS011;12910;57.690;11.974;2023-02-27T14:14:52;0.30;;;0.30;;
24826;SDS011;12910;57.690;11.974;2023-02-27T14:25:39;0.60;;;0.30;;
24826;SDS011;12910;57.690;11.974;2023-02-27T14:31:06;0.80;;;0.30;;
24826;SDS011;12910;57.690;11.974;2023-02-27T14:33:50;4.30;;;0.50;;
24826;SDS011;12910;57.690;11.974;2023-02-27T14:36:22;1.37;;;0.40;;
24826;SDS011;12910;57.690;11.974;2023-02-27T14:38:52;0.30;;;0.30;;
24826;SDS011;12910;57.690;11.974;2023-02-27T14:44:00;3.03;;;0.50;;
24826;SDS011;12910;57.690;11.974;2023-02-27T14:46:34;6.40;;;0.67;;
24826;SDS011;12910;57.690;11.974;2023-02-27T14:49:05;3.93;;;0.40;;
24826;SDS011;12910;57.690;11.974;2023-02-27T14:51:41;2.33;;;0.60;;
24826;SDS011;12910;57.690;11.974;2023-02-27T14:54:14;3.47;;;0.60;;
24826;SDS011;12910;57.690;11.974;2023-02-27T14:57:01;3.57;;;0.67;;
24826;SDS011;12910;57.690;11.974;2023-02-27T15:02:18;1.53;;;0.77;;
24826;SDS011;12910;57.690;11.974;2023-02-27T15:04:55;1.17;;;0.67;;
24826;SDS011;12910;57.690;11.974;2023-02-27T15:07:39;7.20;;;1.90;;
24826;SDS011;12910;57.690;11.974;2023-02-27T15:10:08;16.40;;;0.80;;
24826;SDS011;12910;57.690;11.974;2023-02-27T15:12:41;8.23;;;1.10;;
24826;SDS011;12910;57.690;11.974;2023-02-27T15:15:06;8.23;;;0.90;;
24826;SDS011;12910;57.690;11.974;2023-02-27T15:17:41;4.90;;;0.70;;
24826;SDS011;12910;57.690;11.974;2023-02-27T15:20:41;4.33;;;0.77;;
24826;SDS011;12910;57.690;11.974;2023-02-27T15:23:22;3.07;;;1.10;;
24826;SDS011;12910;57.690;11.974;2023-02-27T15:25:48;6.97;;;0.80;;
24826;SDS011;12910;57.690;11.974;2023-02-27T15:28:19;8.33;;;1.07;;
24826;SDS011;12910;57.690;11.974;2023-02-27T15:30:50;1.53;;;0.80;;
24826;SDS011;12910;57.690;11.974;2023-02-27T15:33:16;1.13;;;0.60;;
24826;SDS011;12910;57.690;11.974;2023-02-27T15:35:45;6.90;;;0.93;;
24826;SDS011;12910;57.690;11.974;2023-02-27T15:38:30;6.10;;;1.63;;
24826;SDS011;12910;57.690;11.974;2023-02-27T15:40:58;8.20;;;0.60;;
24826;SDS011;12910;57.690;11.974;2023-02-27T15:43:26;2.63;;;0.70;;
24826;SDS011;12910;57.690;11.974;2023-02-27T15:45:52;7.60;;;0.90;;
24826;SDS011;12910;57.690;11.974;2023-02-27T15:48:19;5.63;;;0.80;;
24826;SDS011;12910;57.690;11.974;2023-02-27T15:50:47;1.43;;;0.97;;
24826;SDS011;12910;57.690;11.974;2023-02-27T15:53:16;8.53;;;0.70;;
24826;SDS011;12910;57.690;11.974;2023-02-27T15:55:44;11.23;;;0.90;;
24826;SDS011;12910;57.690;11.974;2023-02-27T15:58:32;5.30;;;0.80;;
24826;SDS011;12910;57.690;11.974;2023-02-27T16:01:21;9.40;;;0.70;;
24826;SDS011;12910;57.690;11.974;2023-02-27T16:03:50;4.20;;;0.80;;
24826;SDS011;12910;57.690;11.974;2023-02-27T16:06:21;2.30;;;0.80;;
24826;SDS011;12910;57.690;11.974;2023-02-27T16:08:50;3.47;;;1.30;;
24826;SDS011;12910;57.690;11.974;2023-02-27T16:11:20;2.33;;;1.50;;
24826;SDS011;12910;57.690;11.974;2023-02-27T16:13:47;13.03;;;1.40;;
24826;SDS011;12910;57.690;11.974;2023-02-27T16:18:48;1.47;;;0.80;;
24826;SDS011;12910;57.690;11.974;2023-02-27T16:21:19;2.90;;;1.00;;
24826;SDS011;12910;57.690;11.974;2023-02-27T16:23:49;7.90;;;1.10;;
24826;SDS011;12910;57.690;11.974;2023-02-27T16:26:28;7.50;;;0.70;;
24826;SDS011;12910;57.690;11.974;2023-02-27T16:29:00;10.07;;;0.67;;
24826;SDS011;12910;57.690;11.974;2023-02-27T16:31:37;2.00;;;0.73;;
24826;SDS011;12910;57.690;11.974;2023-02-27T16:37:03;1.03;;;0.60;;
24826;SDS011;12910;57.690;11.974;2023-02-27T16:39:30;15.67;;;1.00;;
24826;SDS011;12910;57.690;11.974;2023-02-27T16:42:00;1.57;;;0.70;;
24826;SDS011;12910;57.690;11.974;2023-02-27T16:44:26;1.30;;;0.70;;
24826;SDS011;12910;57.690;11.974;2023-02-27T16:46:53;1.23;;;0.50;;
24826;SDS011;12910;57.690;11.974;2023-02-27T16:49:24;9.67;;;0.90;;
24826;SDS011;12910;57.690;11.974;2023-02-27T16:51:53;5.73;;;1.00;;
24826;SDS011;12910;57.690;11.974;2023-02-27T16:54:19;14.67;;;1.13;;
24826;SDS011;12910;57.690;11.974;2023-02-27T16:56:45;7.53;;;1.60;;
24826;SDS011;12910;57.690;11.974;2023-02-27T17:01:50;1.80;;;1.33;;
24826;SDS011;12910;57.690;11.974;2023-02-27T17:04:16;4.40;;;1.07;;
24826;SDS011;12910;57.690;11.974;2023-02-27T17:06:41;3.20;;;0.93;;
24826;SDS011;12910;57.690;11.974;2023-02-27T17:09:08;6.97;;;0.73;;
24826;SDS011;12910;57.690;11.974;2023-02-27T17:11:34;2.90;;;1.10;;
24826;SDS011;12910;57.690;11.974;2023-02-27T17:14:00;1.40;;;0.80;;
24826;SDS011;12910;57.690;11.974;2023-02-27T17:16:26;10.13;;;1.37;;
24826;SDS011;12910;57.690;11.974;2023-02-27T17:18:51;4.70;;;1.23;;
24826;SDS011;12910;57.690;11.974;2023-02-27T17:21:16;3.33;;;1.13;;
24826;SDS011;12910;57.690;11.974;2023-02-27T17:23:42;17.63;;;1.13;;
24826;SDS011;12910;57.690;11.974;2023-02-27T17:26:07;2.70;;;1.23;;
24826;SDS011;12910;57.690;11.974;2023-02-27T17:28:34;9.53;;;1.70;;
24826;SDS011;12910;57.690;11.974;2023-02-27T17:30:59;17.40;;;1.50;;
24826;SDS011;12910;57.690;11.974;2023-02-27T17:33:26;9.10;;;1.23;;
24826;SDS011;12910;57.690;11.974;2023-02-27T17:35:59;1.97;;;1.13;;
24826;SDS011;12910;57.690;11.974;2023-02-27T17:38:25;7.40;;;0.80;;
24826;SDS011;12910;57.690;11.974;2023-02-27T17:40:51;3.80;;;0.80;;
24826;SDS011;12910;57.690;11.974;2023-02-27T17:43:16;9.73;;;1.70;;
24826;SDS011;12910;57.690;11.974;2023-02-27T17:45:41;2.87;;;1.70;;
24826;SDS011;12910;57.690;11.974;2023-02-27T17:48:07;4.37;;;1.27;;
24826;SDS011;12910;57.690;11.974;2023-02-27T17:50:32;2.83;;;1.10;;
24826;SDS011;12910;57.690;11.974;2023-02-27T17:52:58;4.13;;;1.63;;
24826;SDS011;12910;57.690;11.974;2023-02-27T17:55:23;7.43;;;1.00;;
24826;SDS011;12910;57.690;11.974;2023-02-27T17:57:49;7.53;;;1.30;;
24826;SDS011;12910;57.690;11.974;2023-02-27T18:00:14;16.90;;;1.27;;
24826;SDS011;12910;57.690;11.974;2023-02-27T18:02:41;11.70;;;1.23;;
24826;SDS011;12910;57.690;11.974;2023-02-27T18:05:07;2.87;;;1.30;;